David, Kentucky
Current Conditions -  °F | °C
As of 9:35 AM on Thursday 27 Nov 2014 (Local Time) from KSJS Reporting Station
Overcast Overcast  
Wind Chill: 28°   Ceiling: 900
Heat Index: 32°   Visibility: 10mi
Dew Point: 31°   Wind: 5mph
Humidity: 94%   Direction: 300°WNW
Pressure: 30.17"   Gusts: NA
Location:  37.6°N, 82.89°W
Report Text: KSJS 271435Z AUTO 30004KT 10SM OVC009 00/M01 A3017 RMK AO2 T00021007
Loading
Personal Weather Stations






























Interactive Weather Map New forecast layout! Learn more

10-Day Weather Forecast

Advertisements
Track Severe Weather on mobile